Terminal Aerodrome Forecast
Issued by NWS Sioux Falls, SD

Home | Current Version | Previous Version | Text Only | Print | Product List | Glossary On
Versions: 1 2 3 4 5 6 7 8 9 10 11 12 13 14 15
000
FTUS43 KFSD 251606 AAA
TAFHON
TAF AMD
KHON 251606Z 2516/2612 03016KT 2SM -SN FEW015 OVC022
     FM251800 01018G26KT 4SM -SN OVC025
     FM252000 36018G26KT 6SM -SN OVC025
     FM260000 35013G19KT P6SM SCT020 BKN070
     FM260600 35012KT P6SM SCT020=

USA.gov is the U.S. government's official web portal to all federal, state and local government web resources and services.